Time;durP1;ratioP1;P1;durP2;ratioP2;P2;SDS_P1;SDS_P2;PMS_P1;PMS_P2;Temp;Humidity;BMP_temperature;BMP_pressure;BME280_temperature;BME280_humidity;BME280_pressure;Samples;Min_cycle;Max_cycle;Signal;HPM_P1;HPM_P2
2021/07/07 00:00:23;;;;;;;9.37;7.40;;;;;;;22.62;100.00;100915.06;5068217;28;20630;-73
2021/07/07 00:02:50;;;;;;;11.30;7.60;;;;;;;22.63;100.00;100903.31;5066771;28;20181;-73
2021/07/07 00:05:18;;;;;;;10.63;7.47;;;;;;;22.66;100.00;100907.50;5046663;28;20419;-73
2021/07/07 00:07:44;;;;;;;8.20;7.00;;;;;;;22.65;100.00;100903.16;5061630;28;20419;-73
2021/07/07 00:10:14;;;;;;;10.13;7.00;;;;;;;22.65;100.00;100905.81;5068158;28;20403;-73
2021/07/07 00:12:40;;;;;;;10.03;7.60;;;;;;;22.64;100.00;100909.53;5067183;28;20480;-72
2021/07/07 00:15:11;;;;;;;10.60;7.67;;;;;;;22.63;100.00;100910.53;5068196;28;20399;-73
2021/07/07 00:17:38;;;;;;;9.93;7.23;;;;;;;22.65;100.00;100903.16;5067738;28;20775;-73
2021/07/07 00:20:06;;;;;;;11.93;7.73;;;;;;;22.71;100.00;100908.63;5046754;28;20497;-73
2021/07/07 00:22:32;;;;;;;10.97;7.43;;;;;;;22.69;100.00;100913.34;5067936;28;20411;-73
2021/07/07 00:24:57;;;;;;;11.73;7.70;;;;;;;22.66;100.00;100908.31;5067015;28;20415;-72
2021/07/07 00:27:24;;;;;;;12.37;6.70;;;;;;;22.68;100.00;100903.63;5068069;28;20169;-70
2021/07/07 00:29:51;;;;;;;11.70;6.47;;;;;;;22.64;100.00;100907.66;5065943;28;20234;-71
2021/07/07 00:32:18;;;;;;;9.13;6.60;;;;;;;22.62;100.00;100908.88;5067058;28;20561;-72
2021/07/07 00:34:44;;;;;;;9.73;7.40;;;;;;;22.61;100.00;100915.25;5059747;28;20932;-72
2021/07/07 00:37:11;;;;;;;11.40;6.10;;;;;;;22.61;100.00;100920.59;5067900;28;20398;-72
2021/07/07 00:39:36;;;;;;;10.83;7.13;;;;;;;22.59;100.00;100914.56;5049679;28;20422;-72
2021/07/07 00:42:02;;;;;;;11.90;7.77;;;;;;;22.56;100.00;100912.25;5067247;28;20772;-73
2021/07/07 00:44:27;;;;;;;10.53;6.90;;;;;;;22.56;100.00;100912.25;5058404;28;20172;-72
2021/07/07 00:46:53;;;;;;;18.40;7.13;;;;;;;22.52;100.00;100919.81;5067541;28;20251;-72
2021/07/07 00:49:19;;;;;;;11.60;7.33;;;;;;;22.50;100.00;100912.94;5067510;28;20173;-72
2021/07/07 00:51:44;;;;;;;10.53;7.50;;;;;;;22.43;100.00;100915.50;5067651;28;20171;-73
2021/07/07 00:54:12;;;;;;;10.50;7.70;;;;;;;22.39;100.00;100916.88;5066330;28;20225;-73
2021/07/07 00:56:38;;;;;;;13.43;7.60;;;;;;;22.33;100.00;100922.91;5069763;28;20177;-72
2021/07/07 00:59:08;;;;;;;9.07;7.00;;;;;;;22.34;100.00;100911.19;5069225;28;20476;-73
2021/07/07 01:01:34;;;;;;;10.93;7.07;;;;;;;22.30;100.00;100910.72;5070939;28;20168;-73
2021/07/07 01:04:00;;;;;;;13.43;9.20;;;;;;;22.30;100.00;100920.59;5071155;28;20406;-72
2021/07/07 01:06:26;;;;;;;9.80;7.10;;;;;;;22.28;100.00;100922.59;5070979;28;20414;-73
2021/07/07 01:08:51;;;;;;;10.23;6.90;;;;;;;22.30;100.00;100926.78;5053928;28;20676;-73
2021/07/07 01:11:17;;;;;;;11.63;6.87;;;;;;;22.28;100.00;100933.31;5070757;28;20235;-73
2021/07/07 01:13:42;;;;;;;12.93;7.77;;;;;;;22.24;100.00;100930.16;5070952;28;20196;-72
2021/07/07 01:16:08;;;;;;;14.63;7.80;;;;;;;22.25;100.00;100934.50;5069206;28;20172;-72
2021/07/07 01:18:35;;;;;;;11.10;7.90;;;;;;;22.19;100.00;100935.19;5069359;28;20566;-72
2021/07/07 01:21:00;;;;;;;10.40;7.97;;;;;;;22.19;100.00;100939.69;5071237;28;20409;-72
2021/07/07 01:23:26;;;;;;;14.80;7.37;;;;;;;22.24;100.00;100943.53;5070639;28;20410;-73
2021/07/07 01:25:52;;;;;;;9.30;7.27;;;;;;;22.25;100.00;100939.84;5070741;28;20650;-74
2021/07/07 01:28:18;;;;;;;10.63;7.43;;;;;;;22.24;100.00;100942.72;5053100;28;20554;-73
2021/07/07 01:30:43;;;;;;;9.93;7.10;;;;;;;22.20;100.00;100931.50;5068312;28;20200;-73
2021/07/07 01:33:10;;;;;;;12.80;7.60;;;;;;;22.20;100.00;100936.84;5070630;28;20450;-74
2021/07/07 01:35:36;;;;;;;10.07;7.47;;;;;;;22.20;100.00;100934.16;5070437;28;20894;-74
2021/07/07 01:38:02;;;;;;;12.20;7.47;;;;;;;22.21;100.00;100932.31;5070719;28;20432;-74
2021/07/07 01:40:30;;;;;;;11.80;7.53;;;;;;;22.17;100.00;100945.22;5070883;28;21158;-73
2021/07/07 01:42:56;;;;;;;11.27;7.60;;;;;;;22.17;100.00;100942.56;5070611;28;20504;-73
2021/07/07 01:45:23;;;;;;;12.40;7.10;;;;;;;22.14;100.00;100929.50;5070566;28;20993;-74
2021/07/07 01:47:50;;;;;;;13.03;8.47;;;;;;;22.09;100.00;100934.56;5067591;28;20429;-72
2021/07/07 01:50:17;;;;;;;10.10;7.50;;;;;;;22.11;100.00;100944.06;5066084;28;20399;-72
2021/07/07 01:52:43;;;;;;;12.43;7.80;;;;;;;22.13;100.00;100941.22;5068716;28;20553;-73
2021/07/07 01:55:12;;;;;;;12.00;7.80;;;;;;;22.09;100.00;100942.59;5070319;28;20410;-73
2021/07/07 01:57:43;;;;;;;11.10;8.30;;;;;;;22.14;100.00;100941.06;5070034;28;20779;-72
2021/07/07 02:00:18;;;;;;;13.17;10.20;;;;;;;22.13;100.00;100939.38;5070043;28;20502;-72
2021/07/07 02:02:45;;;;;;;15.70;8.93;;;;;;;22.01;100.00;100942.59;5052950;28;20409;-73
2021/07/07 02:05:12;;;;;;;18.87;9.10;;;;;;;22.01;100.00;100948.78;5070216;28;20407;-72
2021/07/07 02:07:38;;;;;;;12.43;8.97;;;;;;;22.07;100.00;100950.75;5049878;28;20435;-73
2021/07/07 02:10:07;;;;;;;15.47;7.60;;;;;;;22.08;100.00;100951.63;5069740;28;20410;-73
2021/07/07 02:12:33;;;;;;;16.77;7.87;;;;;;;22.00;100.00;100944.44;5067125;28;20462;-72
2021/07/07 02:14:59;;;;;;;11.27;7.07;;;;;;;21.99;100.00;100948.13;5061151;28;20419;-73
2021/07/07 02:17:24;;;;;;;14.37;7.70;;;;;;;21.98;100.00;100945.59;5069714;28;20175;-72
2021/07/07 02:19:50;;;;;;;10.37;7.43;;;;;;;22.01;100.00;100947.94;5069679;28;20647;-71
2021/07/07 02:22:15;;;;;;;12.37;8.80;;;;;;;22.01;100.00;100947.94;5069436;28;20270;-72
2021/07/07 02:24:41;;;;;;;12.70;7.33;;;;;;;21.97;100.00;100951.94;5069663;28;20168;-72
2021/07/07 02:27:06;;;;;;;11.30;7.57;;;;;;;21.94;100.00;100945.09;5067803;28;20702;-72
2021/07/07 02:29:32;;;;;;;10.97;7.67;;;;;;;21.96;100.00;100959.16;5060776;28;20164;-71
2021/07/07 02:31:57;;;;;;;13.90;8.60;;;;;;;21.97;100.00;100959.97;5051340;28;20216;-71
2021/07/07 02:34:23;;;;;;;11.20;8.37;;;;;;;21.97;100.00;100954.63;5060832;28;20164;-73
2021/07/07 02:36:48;;;;;;;13.50;9.20;;;;;;;21.95;100.00;100952.13;5069383;28;20164;-72
2021/07/07 02:39:14;;;;;;;14.20;10.00;;;;;;;21.92;100.00;100959.69;5069491;28;20578;-72
2021/07/07 02:41:39;;;;;;;13.00;9.30;;;;;;;21.94;100.00;100949.63;5069024;28;20720;-73
2021/07/07 02:44:05;;;;;;;16.87;9.80;;;;;;;21.93;100.00;100953.31;5068130;28;20175;-71
2021/07/07 02:46:31;;;;;;;17.57;9.23;;;;;;;21.90;100.00;100951.78;5068572;28;20547;-72
2021/07/07 02:48:56;;;;;;;20.27;9.40;;;;;;;21.93;100.00;100946.13;5067297;28;20940;-72
2021/07/07 02:51:22;;;;;;;12.87;8.50;;;;;;;21.93;100.00;100958.66;5068834;28;20543;-73
2021/07/07 02:53:47;;;;;;;16.87;8.90;;;;;;;21.92;100.00;100940.94;5051175;28;20216;-73
2021/07/07 02:56:13;;;;;;;12.30;8.33;;;;;;;21.94;100.00;100946.94;5051187;28;20649;-73
2021/07/07 02:58:38;;;;;;;10.73;7.60;;;;;;;21.92;100.00;100946.28;5068981;28;20171;-72
2021/07/07 03:01:04;;;;;;;10.83;7.80;;;;;;;21.94;100.00;100949.63;5068787;28;20173;-73
2021/07/07 03:03:29;;;;;;;11.27;8.40;;;;;;;21.96;100.00;100958.31;5068944;28;20164;-73
2021/07/07 03:05:56;;;;;;;11.30;8.30;;;;;;;21.95;100.00;100960.16;5068836;28;20634;-74
2021/07/07 03:08:27;;;;;;;16.40;8.70;;;;;;;21.93;100.00;100964.84;5068538;28;20186;-73
2021/07/07 03:10:54;;;;;;;11.63;8.93;;;;;;;21.98;100.00;100956.28;5068724;28;20494;-73
2021/07/07 03:13:20;;;;;;;19.87;10.07;;;;;;;21.99;100.00;100956.16;5068379;28;20470;-72
2021/07/07 03:15:46;;;;;;;13.47;10.97;;;;;;;22.02;100.00;100958.47;5068738;28;20914;-73
2021/07/07 03:18:13;;;;;;;12.67;9.10;;;;;;;22.00;100.00;100960.50;5068302;28;20407;-73
2021/07/07 03:20:41;;;;;;;17.30;10.40;;;;;;;22.02;100.00;100961.13;5068508;28;20461;-74
2021/07/07 03:23:07;;;;;;;15.37;11.10;;;;;;;22.09;100.00;100961.31;5068508;28;20456;-72
2021/07/07 03:25:34;;;;;;;18.37;11.27;;;;;;;22.04;100.00;100955.59;5069145;28;20490;-73
2021/07/07 03:28:00;;;;;;;10.80;9.07;;;;;;;22.12;100.00;100960.97;5061862;28;20856;-72
2021/07/07 03:30:26;;;;;;;16.33;8.47;;;;;;;22.12;100.00;100964.47;5066849;28;20430;-72
2021/07/07 03:32:56;;;;;;;15.27;8.67;;;;;;;22.18;100.00;100970.16;5068065;28;20466;-73
2021/07/07 03:35:22;;;;;;;14.80;9.37;;;;;;;22.27;100.00;100966.44;5050098;28;20423;-73
2021/07/07 03:37:47;;;;;;;12.50;7.60;;;;;;;22.25;100.00;100969.28;5068520;28;20406;-73
2021/07/07 03:40:13;;;;;;;11.60;8.90;;;;;;;22.22;100.00;100972.34;5068364;28;20302;-73
2021/07/07 03:42:39;;;;;;;20.80;8.37;;;;;;;22.26;100.00;100976.31;5049794;28;20275;-72
2021/07/07 03:45:07;;;;;;;15.87;9.50;;;;;;;22.34;100.00;100973.59;5068345;28;20839;-73
2021/07/07 03:47:33;;;;;;;11.50;8.10;;;;;;;22.36;100.00;100982.28;5050421;28;20188;-73
2021/07/07 03:49:58;;;;;;;15.43;9.30;;;;;;;22.39;100.00;100992.69;5068490;28;20594;-72
2021/07/07 03:52:24;;;;;;;13.80;8.37;;;;;;;22.47;100.00;100989.13;5061067;28;20208;-73
2021/07/07 03:54:49;;;;;;;17.13;10.13;;;;;;;22.48;100.00;100989.97;5068433;28;20190;-72
2021/07/07 03:57:15;;;;;;;11.30;9.10;;;;;;;22.50;100.00;100995.97;5068296;28;20168;-72
2021/07/07 03:59:41;;;;;;;12.90;9.40;;;;;;;22.54;100.00;100994.63;5068163;28;20191;-73
2021/07/07 04:02:06;;;;;;;20.00;9.87;;;;;;;22.62;100.00;100998.09;5068072;28;20202;-72
2021/07/07 04:04:32;;;;;;;11.20;7.77;;;;;;;22.68;100.00;100993.91;5068536;28;20750;-72
2021/07/07 04:06:59;;;;;;;15.73;9.47;;;;;;;22.77;100.00;101000.03;5047274;28;20183;-73
2021/07/07 04:09:30;;;;;;;14.70;8.47;;;;;;;22.87;100.00;100995.31;5048196;28;20219;-72
2021/07/07 04:11:56;;;;;;;20.07;9.43;;;;;;;22.90;100.00;100995.81;5070534;28;20399;-75
2021/07/07 04:14:24;;;;;;;12.43;8.70;;;;;;;22.97;100.00;100987.88;5070305;28;20399;-73
2021/07/07 04:16:51;;;;;;;14.17;9.93;;;;;;;22.96;100.00;100992.41;5070783;28;20497;-74
2021/07/07 04:19:17;;;;;;;12.57;8.77;;;;;;;23.00;100.00;100997.44;5070344;28;20410;-72
2021/07/07 04:21:43;;;;;;;12.17;9.27;;;;;;;23.09;100.00;100993.69;5052195;28;20418;-74
2021/07/07 04:24:09;;;;;;;15.03;10.40;;;;;;;23.15;100.00;100990.28;5068720;28;20425;-74
2021/07/07 04:26:35;;;;;;;15.90;10.13;;;;;;;23.20;100.00;101001.28;5070374;28;20183;-75
2021/07/07 04:29:00;;;;;;;13.47;9.10;;;;;;;23.25;100.00;101002.44;5070105;28;20394;-73
2021/07/07 04:31:25;;;;;;;14.67;10.27;;;;;;;23.34;100.00;101010.41;5072314;28;20674;-74
2021/07/07 04:33:51;;;;;;;15.70;9.77;;;;;;;23.35;100.00;101004.03;5074048;28;20231;-74
2021/07/07 04:36:16;;;;;;;20.83;10.40;;;;;;;23.39;100.00;100998.16;5073680;28;20181;-74
2021/07/07 04:38:42;;;;;;;17.57;10.43;;;;;;;23.42;100.00;101000.47;5073120;28;20219;-74
2021/07/07 04:41:07;;;;;;;14.43;10.40;;;;;;;23.49;100.00;101004.09;5073501;28;20171;-74
2021/07/07 04:43:33;;;;;;;14.37;11.10;;;;;;;23.57;100.00;100992.47;5073789;28;20663;-73
2021/07/07 04:45:58;;;;;;;16.20;10.43;;;;;;;23.65;100.00;101002.31;5073438;28;20265;-75
2021/07/07 04:48:24;;;;;;;13.30;9.70;;;;;;;23.70;100.00;101000.75;5073831;28;20179;-73
2021/07/07 04:50:49;;;;;;;15.80;9.97;;;;;;;23.80;100.00;101004.03;5073880;28;20165;-73
2021/07/07 04:53:15;;;;;;;11.50;9.40;;;;;;;23.84;100.00;101001.81;5073876;28;20294;-74
2021/07/07 04:55:40;;;;;;;13.87;8.90;;;;;;;23.98;100.00;101001.00;5073437;28;20622;-73
2021/07/07 04:58:08;;;;;;;10.83;8.40;;;;;;;24.13;100.00;101000.19;5055728;28;20167;-74
2021/07/07 05:00:33;;;;;;;13.97;9.57;;;;;;;24.23;100.00;101008.78;5055291;28;20611;-74
2021/07/07 05:02:59;;;;;;;18.73;9.20;;;;;;;24.30;100.00;101004.34;5073479;28;20409;-72
2021/07/07 05:05:25;;;;;;;14.03;9.67;;;;;;;24.38;100.00;101012.34;5073557;28;20169;-74
2021/07/07 05:07:51;;;;;;;10.03;8.23;;;;;;;24.47;100.00;101010.38;5073043;28;20766;-73
2021/07/07 05:10:17;;;;;;;44.73;35.93;;;;;;;24.52;100.00;101014.19;5073439;28;20247;-73
2021/07/07 05:12:44;;;;;;;13.10;11.10;;;;;;;24.61;100.00;101018.44;5073519;28;20442;-73
2021/07/07 05:15:11;;;;;;;14.00;9.80;;;;;;;24.66;100.00;101012.50;5073127;28;20165;-74
2021/07/07 05:17:37;;;;;;;13.43;10.10;;;;;;;24.73;100.00;101017.97;5073664;28;20809;-73
2021/07/07 05:20:04;;;;;;;14.03;10.63;;;;;;;24.78;100.00;101032.47;5073404;28;20442;-75
2021/07/07 05:22:30;;;;;;;17.07;9.73;;;;;;;24.61;100.00;101029.19;5070739;28;20176;-74
2021/07/07 05:24:55;;;;;;;12.73;10.47;;;;;;;24.67;100.00;101035.66;5069923;28;20411;-73
2021/07/07 05:27:21;;;;;;;15.80;11.83;;;;;;;24.73;100.00;101042.16;5073244;28;20172;-73
2021/07/07 05:29:47;;;;;;;13.17;11.67;;;;;;;24.63;100.00;101053.16;5072999;28;20184;-73
2021/07/07 05:32:12;;;;;;;12.03;9.83;;;;;;;24.70;100.00;101043.34;5054206;28;20245;-74
2021/07/07 05:34:40;;;;;;;15.33;10.87;;;;;;;24.74;100.00;101059.94;5072476;28;20686;-72
2021/07/07 05:37:05;;;;;;;12.83;10.70;;;;;;;24.73;100.00;101059.13;5075441;28;20168;-73
2021/07/07 05:39:31;;;;;;;12.50;9.93;;;;;;;24.80;100.00;101067.28;5071768;28;20437;-74
2021/07/07 05:41:57;;;;;;;17.20;10.73;;;;;;;24.85;100.00;101079.09;5072141;28;20261;-73
2021/07/07 05:44:24;;;;;;;15.67;11.27;;;;;;;24.87;100.00;101076.25;5083390;28;20175;-75
2021/07/07 05:46:50;;;;;;;12.87;11.40;;;;;;;24.89;100.00;101080.41;5054944;28;20552;-72
2021/07/07 05:49:15;;;;;;;11.73;10.60;;;;;;;24.85;100.00;101094.41;5071560;28;20490;-73
2021/07/07 05:51:41;;;;;;;13.00;11.20;;;;;;;24.91;100.00;101102.56;5070691;28;20169;-73
2021/07/07 05:54:06;;;;;;;12.43;11.20;;;;;;;24.97;100.00;101095.59;5070868;28;20196;-74
2021/07/07 05:56:32;;;;;;;15.73;12.03;;;;;;;25.03;100.00;101107.47;5072022;28;20172;-72
2021/07/07 05:58:57;;;;;;;15.17;11.87;;;;;;;24.94;100.00;101104.06;5072345;28;20175;-72
2021/07/07 06:01:25;;;;;;;11.37;10.13;;;;;;;24.89;100.00;101112.69;5054648;28;20217;-76
2021/07/07 06:03:57;;;;;;;17.57;11.10;;;;;;;24.75;100.00;101118.06;5071635;28;20184;-78
2021/07/07 06:06:22;;;;;;;18.53;11.27;;;;;;;24.90;100.00;101113.50;5072115;28;20447;-75
2021/07/07 06:09:02;;;;;;;;;;;;;;;;;;;;;
2021/07/07 06:11:28;;;;;;;14.13;11.50;;;;;;;25.01;100.00;101114.88;5058837;28;20634;-75
2021/07/07 06:13:54;;;;;;;13.97;11.40;;;;;;;25.02;100.00;101103.13;5072134;28;20505;-75
2021/07/07 06:16:19;;;;;;;19.47;12.40;;;;;;;25.02;100.00;101109.31;5072005;28;20247;-75
2021/07/07 06:18:45;;;;;;;13.33;12.00;;;;;;;25.01;100.00;101114.88;5072619;28;20260;-74
2021/07/07 06:21:10;;;;;;;16.33;11.03;;;;;;;25.04;100.00;101114.53;5072474;28;20175;-74
2021/07/07 06:23:36;;;;;;;13.60;11.03;;;;;;;25.13;100.00;101113.41;5072152;28;20674;-74
2021/07/07 06:26:01;;;;;;;13.60;11.20;;;;;;;25.27;100.00;101109.03;5072460;28;20168;-76
2021/07/07 06:28:27;;;;;;;12.77;11.13;;;;;;;25.31;100.00;101110.28;5072516;28;20188;-76
2021/07/07 06:30:53;;;;;;;14.17;10.50;;;;;;;25.36;100.00;101108.72;5054268;28;20195;-73
2021/07/07 06:33:18;;;;;;;15.80;11.37;;;;;;;25.44;100.00;101115.84;5072338;28;20173;-75
2021/07/07 06:35:44;;;;;;;12.83;11.10;;;;;;;25.39;100.00;101107.47;5071930;28;20712;-74
2021/07/07 06:38:11;;;;;;;14.63;11.43;;;;;;;25.48;100.00;101121.69;5071578;28;20200;-74
2021/07/07 06:40:36;;;;;;;14.70;11.00;;;;;;;25.63;100.00;101103.63;5071491;28;20165;-77
2021/07/07 06:43:03;;;;;;;12.13;10.80;;;;;;;25.69;100.00;101103.69;5071765;28;20480;-77
2021/07/07 06:45:30;;;;;;;16.20;11.23;;;;;;;25.76;100.00;101105.63;5071848;28;20234;-80
2021/07/07 06:47:56;;;;;;;13.17;9.93;;;;;;;25.85;100.00;101104.47;5071710;28;20954;-74
2021/07/07 06:50:22;;;;;;;11.73;9.50;;;;;;;25.82;100.00;101102.16;5071862;28;20417;-81
2021/07/07 06:52:48;;;;;;;14.80;12.17;;;;;;;25.98;100.00;101101.88;5071289;28;20782;-74
2021/07/07 06:55:14;;;;;;;11.43;10.23;;;;;;;26.06;100.00;101104.44;5070997;28;20455;-73
2021/07/07 06:57:39;;;;;;;12.03;10.30;;;;;;;26.21;100.00;101104.34;5071167;28;20410;-74
2021/07/07 07:00:07;;;;;;;12.40;9.43;;;;;;;26.36;100.00;101093.44;5071900;28;20579;-76
2021/07/07 07:02:32;;;;;;;13.47;10.33;;;;;;;26.51;100.00;101092.34;5071725;28;20199;-75
2021/07/07 07:04:59;;;;;;;11.40;10.17;;;;;;;26.57;100.00;101100.66;5071560;28;20407;-75
2021/07/07 07:07:27;;;;;;;10.83;9.10;;;;;;;26.42;100.00;101098.09;5071885;28;20190;-75
2021/07/07 07:09:54;;;;;;;10.47;9.43;;;;;;;26.51;100.00;101100.41;5071181;28;20422;-73
2021/07/07 07:12:20;;;;;;;12.13;10.10;;;;;;;26.67;100.00;101101.13;5060062;28;20418;-76
2021/07/07 07:14:49;;;;;;;12.53;9.00;;;;;;;26.80;100.00;101099.34;5071615;28;20407;-74
2021/07/07 07:17:15;;;;;;;12.73;9.50;;;;;;;26.71;100.00;101103.25;5070997;28;20234;-74
2021/07/07 07:19:40;;;;;;;10.60;9.50;;;;;;;26.81;100.00;101105.56;5071240;28;20406;-74
2021/07/07 07:22:06;;;;;;;9.60;8.60;;;;;;;26.79;100.00;101100.38;5070835;28;20195;-75
2021/07/07 07:24:32;;;;;;;9.70;8.67;;;;;;;27.03;100.00;101095.50;5071509;28;20175;-74
2021/07/07 07:26:58;;;;;;;13.00;9.63;;;;;;;27.26;100.00;101095.19;5070874;28;20173;-74
2021/07/07 07:29:24;;;;;;;9.70;8.57;;;;;;;27.33;100.00;101104.13;5071177;28;20299;-72
2021/07/07 07:31:49;;;;;;;15.43;8.77;;;;;;;27.37;100.00;101111.63;5070790;28;20233;-74
2021/07/07 07:34:15;;;;;;;11.20;8.10;;;;;;;27.48;100.00;101106.66;5071066;28;20416;-74
2021/07/07 07:36:44;;;;;;;11.17;8.10;;;;;;;27.60;100.00;101110.44;5070931;28;20165;-74
2021/07/07 07:39:24;;;;;;;8.67;7.77;;;;;;;27.68;100.00;101112.97;5071165;28;20395;-74
2021/07/07 07:41:50;;;;;;;10.50;8.37;;;;;;;27.71;100.00;101120.66;5052607;28;20426;-78
2021/07/07 07:44:18;;;;;;;9.63;8.47;;;;;;;27.62;100.00;101120.00;5071456;28;20419;-76
2021/07/07 07:46:43;;;;;;;9.37;8.47;;;;;;;27.85;100.00;101119.63;5071282;28;20172;-71
2021/07/07 07:49:12;;;;;;;11.03;9.20;;;;;;;28.12;100.00;101125.06;5071528;28;20407;-76
2021/07/07 07:51:38;;;;;;;11.40;9.80;;;;;;;28.48;100.00;101124.63;5071059;28;20176;-80
2021/07/07 07:54:04;;;;;;;8.47;7.50;;;;;;;28.44;100.00;101128.78;5071486;28;20427;-76
2021/07/07 07:56:29;;;;;;;12.27;8.80;;;;;;;28.37;100.00;101131.50;5069580;28;20172;-75
2021/07/07 07:58:54;;;;;;;10.40;7.80;;;;;;;28.41;100.00;101135.44;5068197;28;20211;-72
2021/07/07 08:01:20;;;;;;;10.53;8.83;;;;;;;28.52;100.00;101125.88;5051227;28;20180;-75
2021/07/07 08:03:46;;;;;;;9.23;7.57;;;;;;;28.58;100.00;101127.72;5062702;28;20199;-73
2021/07/07 08:06:11;;;;;;;10.60;8.70;;;;;;;28.43;100.00;101138.78;5061789;28;20271;-75
2021/07/07 08:08:37;;;;;;;11.83;8.87;;;;;;;28.05;100.00;101132.34;5068310;28;20626;-75
2021/07/07 08:11:02;;;;;;;9.60;8.60;;;;;;;28.08;100.00;101148.94;5064232;28;20203;-76
2021/07/07 08:13:28;;;;;;;10.90;8.33;;;;;;;28.14;100.00;101141.88;5068356;28;20885;-73
2021/07/07 08:15:54;;;;;;;11.20;9.43;;;;;;;28.18;100.00;101149.34;5062444;28;20157;-76
2021/07/07 08:18:20;;;;;;;9.50;7.67;;;;;;;27.87;100.00;101149.97;5083611;28;20171;-80
2021/07/07 08:20:47;;;;;;;11.60;9.77;;;;;;;27.72;100.00;101145.78;5085097;28;20230;-78
2021/07/07 08:23:14;;;;;;;11.03;9.37;;;;;;;27.75;100.00;101145.41;5068415;28;20200;-75
2021/07/07 08:25:40;;;;;;;8.47;7.57;;;;;;;27.96;100.00;101134.38;5077332;28;20414;-75
2021/07/07 08:28:06;;;;;;;10.73;7.47;;;;;;;27.99;100.00;101152.06;5081472;28;20427;-79
2021/07/07 08:30:31;;;;;;;9.67;7.83;;;;;;;27.99;100.00;101135.84;5078467;28;20441;-76
2021/07/07 08:32:59;;;;;;;9.80;7.50;;;;;;;28.24;100.00;101138.75;5081193;28;20208;-79
2021/07/07 08:35:24;;;;;;;8.73;7.50;;;;;;;28.53;100.00;101134.81;5049389;28;20176;-78
2021/07/07 08:37:56;;;;;;;11.53;10.43;;;;;;;28.61;100.00;101137.28;5077034;28;20420;-75
2021/07/07 08:40:24;;;;;;;13.00;9.17;;;;;;;28.78;100.00;101143.06;5050225;28;20407;-76
2021/07/07 08:42:50;;;;;;;10.40;7.97;;;;;;;28.68;100.00;101138.09;5075092;28;20188;-78
2021/07/07 08:45:19;;;;;;;14.30;8.20;;;;;;;28.30;100.00;101156.88;5083919;28;20403;-76
2021/07/07 08:47:46;;;;;;;9.40;8.27;;;;;;;28.20;100.00;101159.97;5024992;28;20168;-82
2021/07/07 08:50:21;;;;;;;16.13;8.90;;;;;;;28.22;100.00;101160.59;5057074;28;20404;-80
2021/07/07 08:52:47;;;;;;;8.77;7.90;;;;;;;28.25;100.00;101154.75;5052860;28;20426;-81
2021/07/07 08:55:18;;;;;;;10.60;8.00;;;;;;;28.16;100.00;101151.44;5057988;28;20733;-75
2021/07/07 08:57:44;;;;;;;8.00;7.20;;;;;;;28.14;100.00;101152.69;5059574;28;20455;-79
2021/07/07 09:00:17;;;;;;;10.43;7.73;;;;;;;28.22;100.00;101160.59;5064318;28;20419;-74
2021/07/07 09:02:56;;;;;;;8.60;7.37;;;;;;;28.59;100.00;101150.19;5071922;28;20795;-74
2021/07/07 09:05:23;;;;;;;11.27;7.13;;;;;;;28.97;100.00;101153.03;5045578;28;20422;-75
2021/07/07 09:07:49;;;;;;;9.93;7.13;;;;;;;29.19;100.00;101151.69;5073837;28;20410;-79
2021/07/07 09:10:25;;;;;;;12.20;7.83;;;;;;;29.44;100.00;101149.06;5073334;28;20451;-77
2021/07/07 09:12:51;;;;;;;7.80;7.00;;;;;;;29.67;100.00;101153.13;5056249;28;20779;-73
2021/07/07 09:15:17;;;;;;;10.47;6.80;;;;;;;29.59;100.00;101145.28;5073302;28;20418;-77
2021/07/07 09:17:48;;;;;;;13.90;7.80;;;;;;;29.66;100.00;101149.59;5072855;28;20173;-78
2021/07/07 09:20:28;;;;;;;10.63;7.30;;;;;;;28.93;100.00;101160.75;5073802;28;20391;-75
2021/07/07 09:23:15;;;;;;;8.10;7.07;;;;;;;28.91;100.00;101164.72;5053553;28;20450;-73
2021/07/07 09:26:04;;;;;;;6.90;6.20;;;;;;;28.93;100.00;101154.50;5061650;28;20406;-75
2021/07/07 09:28:32;;;;;;;8.60;6.63;;;;;;;29.24;100.00;101156.44;5071827;28;20518;-73
2021/07/07 09:31:04;;;;;;;10.57;8.60;;;;;;;29.43;100.00;101154.72;5073673;28;20444;-74
2021/07/07 09:33:42;;;;;;;12.37;8.00;;;;;;;29.32;100.00;101158.91;5072428;28;20498;-75
2021/07/07 09:36:23;;;;;;;9.23;7.47;;;;;;;29.50;100.00;101152.84;5063193;28;20897;-76
2021/07/07 09:38:52;;;;;;;7.90;5.90;;;;;;;29.19;100.00;101159.00;5054802;28;20429;-75
2021/07/07 09:41:19;;;;;;;11.57;6.37;;;;;;;29.37;100.00;101156.41;5072869;28;20418;-74
2021/07/07 09:43:49;;;;;;;15.00;7.57;;;;;;;29.57;100.00;101159.03;5072972;28;21003;-76
2021/07/07 09:46:18;;;;;;;8.13;6.53;;;;;;;29.50;100.00;101164.50;5072487;28;20940;-75
2021/07/07 09:48:44;;;;;;;8.43;7.07;;;;;;;29.31;100.00;101168.09;5068544;28;20407;-78
2021/07/07 09:51:09;;;;;;;8.33;6.73;;;;;;;29.54;100.00;101171.13;5054507;28;20433;-76
2021/07/07 09:53:35;;;;;;;11.23;6.40;;;;;;;29.95;100.00;101167.13;5072863;28;20490;-75
2021/07/07 09:56:02;;;;;;;9.50;6.17;;;;;;;29.96;100.00;101166.06;5073099;28;20208;-77
2021/07/07 09:58:28;;;;;;;15.30;12.50;;;;;;;29.95;100.00;101167.13;5064818;28;20251;-79
2021/07/07 10:00:54;;;;;;;14.90;6.97;;;;;;;29.98;100.00;101173.97;5072399;28;20460;-76
2021/07/07 10:03:20;;;;;;;12.33;9.90;;;;;;;30.06;100.00;101169.09;5072514;28;20442;-75
2021/07/07 10:05:47;;;;;;;10.50;8.03;;;;;;;30.20;100.00;101177.19;5072610;28;20212;-77
2021/07/07 10:08:13;;;;;;;23.00;19.63;;;;;;;30.10;100.00;101185.81;5072135;28;20207;-75
2021/07/07 10:10:41;;;;;;;12.57;11.23;;;;;;;30.18;100.00;101185.53;5072319;28;20434;-77
2021/07/07 10:13:09;;;;;;;10.47;8.03;;;;;;;30.27;100.00;101176.06;5072543;28;20406;-76
2021/07/07 10:15:35;;;;;;;7.63;6.83;;;;;;;30.55;100.00;101185.63;5064632;28;20960;-73
2021/07/07 10:18:02;;;;;;;9.83;6.63;;;;;;;30.79;100.00;101178.53;5071185;28;20414;-73
2021/07/07 10:20:28;;;;;;;10.83;7.47;;;;;;;31.00;100.00;101180.81;5061818;28;20183;-75
2021/07/07 10:22:56;;;;;;;10.93;7.43;;;;;;;30.71;100.00;101189.69;5065833;28;20771;-74
2021/07/07 10:25:25;;;;;;;8.83;7.00;;;;;;;30.21;100.00;101186.97;5071785;28;20422;-74
2021/07/07 10:27:51;;;;;;;32.67;29.67;;;;;;;30.52;100.00;101188.78;5071583;28;20419;-74
2021/07/07 10:30:20;;;;;;;9.13;7.20;;;;;;;30.92;100.00;101178.41;5071178;28;20407;-76
2021/07/07 10:33:05;;;;;;;8.17;6.73;;;;;;;30.91;100.00;101182.16;5070706;28;20545;-74
2021/07/07 10:35:31;;;;;;;10.47;6.20;;;;;;;30.70;100.00;101172.56;5058317;28;20434;-74
2021/07/07 10:37:56;;;;;;;9.87;7.37;;;;;;;30.73;100.00;101174.81;5071669;28;20434;-75
2021/07/07 10:40:22;;;;;;;8.30;6.60;;;;;;;30.55;100.00;101186.47;5071903;28;20169;-73
2021/07/07 10:42:47;;;;;;;8.60;7.10;;;;;;;30.44;100.00;101176.31;5072266;28;20192;-75
2021/07/07 10:45:35;;;;;;;9.10;6.50;;;;;;;30.85;100.00;101177.63;5071447;28;20179;-76
2021/07/07 10:48:29;;;;;;;9.53;7.13;;;;;;;30.72;100.00;101172.34;5052147;28;20321;-76
2021/07/07 10:50:58;;;;;;;7.23;6.40;;;;;;;30.32;100.00;101170.00;5068946;28;20414;-74
2021/07/07 10:53:35;;;;;;;10.90;7.67;;;;;;;30.49;100.00;101171.06;5070934;28;20489;-72
2021/07/07 10:56:04;;;;;;;10.30;7.10;;;;;;;30.91;100.00;101165.88;5067355;28;20422;-74
2021/07/07 10:58:35;;;;;;;8.03;6.70;;;;;;;31.12;100.00;101167.28;5048885;28;20848;-73
2021/07/07 11:01:04;;;;;;;8.63;7.70;;;;;;;31.10;100.00;101172.94;5069787;28;20890;-73
2021/07/07 11:03:39;;;;;;;9.87;7.27;;;;;;;30.85;100.00;101162.19;5062035;28;20452;-73
2021/07/07 11:06:28;;;;;;;9.40;7.27;;;;;;;30.82;100.00;101159.91;5071113;28;20405;-73
2021/07/07 11:09:07;;;;;;;7.87;7.07;;;;;;;31.16;100.00;101161.19;5070223;28;20399;-73